createdAt,value
2023-04-08T00:02:21.996Z,13.17
2023-04-08T00:04:50.507Z,12.25
2023-04-08T00:07:18.444Z,13.13
2023-04-08T00:09:46.536Z,12.53
2023-04-08T00:12:14.816Z,11.77
2023-04-08T00:14:42.746Z,10.70
2023-04-08T00:17:10.846Z,10.00
2023-04-08T00:19:40.825Z,15.90
2023-04-08T00:22:09.108Z,11.87
2023-04-08T00:24:37.371Z,12.70
2023-04-08T00:27:05.389Z,10.00
2023-04-08T00:29:33.554Z,12.03
2023-04-08T00:32:01.856Z,11.00
2023-04-08T00:34:29.802Z,10.00
2023-04-08T00:36:59.163Z,8.90
2023-04-08T00:39:27.267Z,9.57
2023-04-08T00:41:56.255Z,9.07
2023-04-08T00:44:24.442Z,11.67
2023-04-08T00:46:52.447Z,9.87
2023-04-08T00:49:21.016Z,9.10
2023-04-08T00:51:48.926Z,9.80
2023-04-08T00:54:18.252Z,9.33
2023-04-08T00:56:46.862Z,9.10
2023-04-08T00:59:15.360Z,8.87
2023-04-08T01:01:49.000Z,8.60
2023-04-08T01:04:27.057Z,7.50
2023-04-08T01:07:00.766Z,6.43
2023-04-08T01:09:36.581Z,9.30
2023-04-08T01:12:09.384Z,7.90
2023-04-08T01:14:43.451Z,7.07
2023-04-08T01:17:11.959Z,8.90
2023-04-08T01:19:41.870Z,6.87
2023-04-08T01:22:20.259Z,7.80
2023-04-08T01:24:51.700Z,10.43
2023-04-08T01:27:21.506Z,9.30
2023-04-08T01:29:50.659Z,8.37
2023-04-08T01:32:19.343Z,9.37
2023-04-08T01:34:47.666Z,8.60
2023-04-08T01:37:17.193Z,7.40
2023-04-08T01:39:46.025Z,8.80
2023-04-08T01:42:14.771Z,8.87
2023-04-08T01:44:44.610Z,9.17
2023-04-08T01:47:14.668Z,10.13
2023-04-08T01:49:43.661Z,9.47
2023-04-08T01:52:12.684Z,9.53
2023-04-08T01:54:40.583Z,10.37
2023-04-08T01:57:13.386Z,7.93
2023-04-08T01:59:43.273Z,10.70
2023-04-08T02:02:12.252Z,9.83
2023-04-08T02:04:40.884Z,9.25
2023-04-08T02:07:09.563Z,13.90
2023-04-08T02:09:37.467Z,8.97
2023-04-08T02:12:05.847Z,10.23
2023-04-08T02:14:33.829Z,9.83
2023-04-08T02:17:10.029Z,9.93
2023-04-08T02:19:45.310Z,9.30
2023-04-08T02:22:20.211Z,7.70
2023-04-08T02:24:49.235Z,8.17
2023-04-08T02:27:19.710Z,12.33
2023-04-08T02:29:49.430Z,11.70
2023-04-08T02:32:19.320Z,11.50
2023-04-08T02:34:48.527Z,9.33
2023-04-08T02:37:16.511Z,9.07
2023-04-08T02:39:44.658Z,10.17
2023-04-08T02:42:12.563Z,9.20
2023-04-08T02:44:41.261Z,8.73
2023-04-08T02:47:09.238Z,8.77
2023-04-08T02:49:38.677Z,8.90
2023-04-08T02:52:06.798Z,13.90
2023-04-08T02:54:35.019Z,8.50
2023-04-08T02:57:03.208Z,12.43
2023-04-08T02:59:31.182Z,9.00
2023-04-08T03:01:59.278Z,15.80
2023-04-08T03:04:27.279Z,13.80
2023-04-08T03:06:56.705Z,10.03
2023-04-08T03:09:24.607Z,10.53
2023-04-08T03:11:55.094Z,10.23
2023-04-08T03:14:23.265Z,10.43
2023-04-08T03:16:51.272Z,12.43
2023-04-08T03:19:19.385Z,11.43
2023-04-08T03:21:47.278Z,11.10
2023-04-08T03:24:16.800Z,10.30
2023-04-08T03:26:45.022Z,12.97
2023-04-08T03:29:13.072Z,12.60
2023-04-08T03:31:41.356Z,11.27
2023-04-08T03:34:09.332Z,9.87
2023-04-08T03:36:37.555Z,11.20
2023-04-08T03:39:05.962Z,11.30
2023-04-08T03:41:35.527Z,16.20
2023-04-08T03:44:03.464Z,13.47
2023-04-08T03:46:31.581Z,10.97
2023-04-08T03:48:59.683Z,12.83
2023-04-08T03:51:28.698Z,12.70
2023-04-08T03:53:56.723Z,13.67
2023-04-08T03:56:25.100Z,13.30
2023-04-08T03:58:54.543Z,15.83
2023-04-08T04:01:22.427Z,12.20
2023-04-08T04:03:50.447Z,14.30
2023-04-08T04:06:18.654Z,10.10
2023-04-08T04:08:46.495Z,10.20
2023-04-08T04:11:14.561Z,10.07
2023-04-08T04:13:42.470Z,15.20
2023-04-08T04:16:11.867Z,14.57
2023-04-08T04:18:39.780Z,13.80
2023-04-08T04:21:08.320Z,15.63
2023-04-08T04:23:36.265Z,10.57
2023-04-08T04:26:08.658Z,13.07
2023-04-08T04:28:36.582Z,12.30
2023-04-08T04:31:04.588Z,15.87
2023-04-08T04:33:34.080Z,12.87
2023-04-08T04:36:02.029Z,11.53
2023-04-08T04:38:30.578Z,10.90
2023-04-08T04:40:59.132Z,13.30
2023-04-08T04:43:27.052Z,16.03
2023-04-08T04:45:54.941Z,12.03
2023-04-08T04:48:23.249Z,12.97
2023-04-08T04:50:57.521Z,11.40
2023-04-08T04:53:26.013Z,16.10
2023-04-08T04:55:53.966Z,14.27
2023-04-08T04:58:22.093Z,13.50
2023-04-08T05:00:50.120Z,15.13
2023-04-08T05:03:18.084Z,15.83
2023-04-08T05:05:46.589Z,15.47
2023-04-08T05:08:15.863Z,16.70
2023-04-08T05:10:43.903Z,16.87
2023-04-08T05:13:11.827Z,16.30
2023-04-08T05:15:39.931Z,18.10
2023-04-08T05:18:07.916Z,17.90
2023-04-08T05:20:36.366Z,18.23
2023-04-08T05:23:04.417Z,15.73
2023-04-08T05:25:33.867Z,14.03
2023-04-08T05:28:01.816Z,17.90
2023-04-08T05:30:30.052Z,20.27
2023-04-08T05:33:00.172Z,19.03
2023-04-08T05:35:28.893Z,16.63
2023-04-08T05:37:56.841Z,16.70
2023-04-08T05:40:25.164Z,17.53
2023-04-08T05:42:54.553Z,15.23
2023-04-08T05:45:22.601Z,23.93
2023-04-08T05:47:50.712Z,17.90
2023-04-08T05:50:18.749Z,14.50
2023-04-08T05:52:47.079Z,23.30
2023-04-08T05:55:15.855Z,14.40
2023-04-08T05:57:43.919Z,13.63
2023-04-08T06:00:13.993Z,18.37
2023-04-08T06:02:42.100Z,15.40
2023-04-08T06:05:11.016Z,13.30
2023-04-08T06:07:38.940Z,12.20
2023-04-08T06:10:07.545Z,17.07
2023-04-08T06:12:37.226Z,17.50
2023-04-08T06:15:05.900Z,13.57
2023-04-08T06:17:37.683Z,15.90
2023-04-08T06:20:07.000Z,11.97
2023-04-08T06:22:36.213Z,17.83
2023-04-08T06:25:04.446Z,13.73
2023-04-08T06:27:32.600Z,16.07
2023-04-08T06:30:00.459Z,14.73
2023-04-08T06:32:28.683Z,15.67
2023-04-08T06:34:58.182Z,16.30
2023-04-08T06:37:26.365Z,16.50
2023-04-08T06:39:54.275Z,13.30
2023-04-08T06:42:23.172Z,16.63
2023-04-08T06:44:51.106Z,15.97
2023-04-08T06:47:18.942Z,18.80
2023-04-08T06:49:47.580Z,18.37
2023-04-08T06:52:17.982Z,18.67
2023-04-08T06:54:46.393Z,17.70
2023-04-08T06:57:14.488Z,18.23
2023-04-08T06:59:42.588Z,15.47
2023-04-08T07:02:10.509Z,17.13
2023-04-08T07:04:38.389Z,17.53
2023-04-08T07:07:06.415Z,18.30
2023-04-08T07:09:36.975Z,17.03
2023-04-08T07:12:05.568Z,16.90
2023-04-08T07:14:33.418Z,16.90
2023-04-08T07:17:01.802Z,17.67
2023-04-08T07:19:30.167Z,18.80
2023-04-08T07:21:58.241Z,24.57
2023-04-08T07:24:26.151Z,19.13
2023-04-08T07:26:56.986Z,16.77
2023-04-08T07:29:24.880Z,19.03
2023-04-08T07:31:52.768Z,16.25
2023-04-08T07:34:21.004Z,17.87
2023-04-08T07:36:48.871Z,14.17
2023-04-08T07:39:17.037Z,15.03
2023-04-08T07:41:44.938Z,17.47
2023-04-08T07:44:17.044Z,15.93
2023-04-08T07:46:49.344Z,13.57
2023-04-08T07:49:17.260Z,15.23
2023-04-08T07:51:45.230Z,15.20
2023-04-08T07:54:17.184Z,14.07
2023-04-08T07:56:45.463Z,14.47
2023-04-08T07:59:14.955Z,12.70
2023-04-08T08:01:43.248Z,12.87
2023-04-08T08:04:11.267Z,11.57
2023-04-08T08:06:39.389Z,15.00
2023-04-08T08:09:07.273Z,14.87
2023-04-08T08:11:35.214Z,14.30
2023-04-08T08:14:04.680Z,13.73
2023-04-08T08:16:34.061Z,12.70
2023-04-08T08:19:02.010Z,12.17
2023-04-08T08:21:29.886Z,13.00
2023-04-08T08:23:59.648Z,15.17
2023-04-08T08:26:28.716Z,13.43
2023-04-08T08:28:56.593Z,13.37
2023-04-08T08:31:24.683Z,16.40
2023-04-08T08:33:54.118Z,16.50
2023-04-08T08:36:22.392Z,13.30
2023-04-08T08:38:52.071Z,12.50
2023-04-08T08:41:19.958Z,13.87
2023-04-08T08:43:48.724Z,12.17
2023-04-08T08:46:19.170Z,15.07
2023-04-08T08:48:47.387Z,14.77
2023-04-08T08:51:16.777Z,17.33
2023-04-08T08:53:45.390Z,12.57
2023-04-08T08:56:18.285Z,16.73
2023-04-08T08:58:47.434Z,15.50
2023-04-08T09:01:33.301Z,13.60
2023-04-08T09:04:20.485Z,13.67
2023-04-08T09:06:51.697Z,16.83
2023-04-08T09:09:19.644Z,16.07
2023-04-08T09:11:48.503Z,12.83
2023-04-08T09:14:21.277Z,16.07
2023-04-08T09:16:49.851Z,12.67
2023-04-08T09:19:18.104Z,13.47
2023-04-08T09:21:46.293Z,10.03
2023-04-08T09:24:32.066Z,13.60
2023-04-08T09:27:00.882Z,13.37
2023-04-08T09:29:33.390Z,10.77
2023-04-08T09:32:03.039Z,12.83
2023-04-08T09:34:34.642Z,13.57
2023-04-08T09:37:03.066Z,12.37
2023-04-08T09:39:32.494Z,11.57
2023-04-08T09:42:02.323Z,13.60
2023-04-08T09:44:31.144Z,14.70
2023-04-08T09:47:06.901Z,9.73
2023-04-08T09:49:39.622Z,13.80
2023-04-08T09:52:09.418Z,11.47
2023-04-08T09:54:45.918Z,12.43
2023-04-08T09:57:17.949Z,12.83
2023-04-08T09:59:51.528Z,17.53
2023-04-08T10:02:30.519Z,13.50
2023-04-08T10:05:01.476Z,15.80
2023-04-08T10:07:29.447Z,19.67
2023-04-08T10:09:58.902Z,13.13
2023-04-08T10:12:27.085Z,13.13
2023-04-08T10:15:23.450Z,13.23
2023-04-08T10:17:51.574Z,16.63
2023-04-08T10:20:45.283Z,14.07
2023-04-08T10:23:14.520Z,15.23
2023-04-08T10:25:45.264Z,13.03
2023-04-08T10:28:26.626Z,14.50
2023-04-08T10:30:55.891Z,15.30
2023-04-08T10:33:25.843Z,13.93
2023-04-08T10:36:03.007Z,16.50
2023-04-08T10:38:31.511Z,14.57
2023-04-08T10:41:00.792Z,14.23
2023-04-08T10:43:34.682Z,18.60
2023-04-08T10:46:02.790Z,13.90
2023-04-08T10:48:30.917Z,16.10
2023-04-08T10:51:00.835Z,14.43
2023-04-08T10:53:29.894Z,17.50
2023-04-08T10:56:07.493Z,14.03
2023-04-08T10:58:36.862Z,14.53
2023-04-08T11:01:07.061Z,16.27
2023-04-08T11:03:36.107Z,16.43
2023-04-08T11:06:05.133Z,14.50
2023-04-08T11:08:34.096Z,14.23
2023-04-08T11:11:02.754Z,16.20
2023-04-08T11:13:33.011Z,18.30
2023-04-08T11:16:02.610Z,13.70
2023-04-08T11:18:31.537Z,15.47
2023-04-08T11:21:00.315Z,18.07
2023-04-08T11:23:28.617Z,17.27
2023-04-08T11:25:57.237Z,19.20
2023-04-08T11:28:27.287Z,17.10
2023-04-08T11:30:58.091Z,15.17
2023-04-08T11:33:27.379Z,18.90
2023-04-08T11:35:55.431Z,17.10
2023-04-08T11:38:24.784Z,18.33
2023-04-08T11:40:56.873Z,14.97
2023-04-08T11:43:25.070Z,17.43
2023-04-08T11:45:53.421Z,17.70
2023-04-08T11:48:24.054Z,17.20
2023-04-08T11:51:04.655Z,16.30
2023-04-08T11:53:32.843Z,15.20
2023-04-08T11:56:17.272Z,15.23
2023-04-08T11:58:45.470Z,16.33
2023-04-08T12:01:13.499Z,15.27
2023-04-08T12:03:58.963Z,18.10
2023-04-08T12:06:27.739Z,16.57
2023-04-08T12:08:56.413Z,15.57
2023-04-08T12:11:25.202Z,15.83
2023-04-08T12:13:53.910Z,12.10
2023-04-08T12:16:22.221Z,12.73
2023-04-08T12:18:51.518Z,13.40
2023-04-08T12:21:19.677Z,12.10
2023-04-08T12:23:47.663Z,14.57
2023-04-08T12:26:15.745Z,15.10
2023-04-08T12:28:43.801Z,15.07
2023-04-08T12:31:11.744Z,13.40
2023-04-08T12:33:39.906Z,11.27
2023-04-08T12:36:10.991Z,12.90
2023-04-08T12:38:40.129Z,14.67
2023-04-08T12:41:08.359Z,14.50
2023-04-08T12:43:36.315Z,13.10
2023-04-08T12:46:04.369Z,11.97
2023-04-08T12:48:33.123Z,16.43
2023-04-08T12:51:01.554Z,12.63
2023-04-08T12:53:30.930Z,14.70
2023-04-08T12:55:58.833Z,14.37
2023-04-08T12:58:26.863Z,13.80
2023-04-08T13:00:54.968Z,11.93
2023-04-08T13:03:23.099Z,15.27
2023-04-08T13:05:51.257Z,13.93
2023-04-08T13:08:19.401Z,12.50
2023-04-08T13:10:48.694Z,30.43
2023-04-08T13:13:16.758Z,12.30
2023-04-08T13:15:44.894Z,13.00
2023-04-08T13:18:12.991Z,13.67
2023-04-08T13:20:40.990Z,12.00
2023-04-08T13:23:09.172Z,12.23
2023-04-08T13:25:37.355Z,13.10
2023-04-08T13:28:06.886Z,12.53
2023-04-08T13:30:34.907Z,11.33
2023-04-08T13:33:03.113Z,13.90
2023-04-08T13:35:31.395Z,11.40
2023-04-08T13:37:59.417Z,10.30
2023-04-08T13:40:28.090Z,10.70
2023-04-08T13:42:56.053Z,9.27
2023-04-08T13:45:26.198Z,10.90
2023-04-08T13:47:54.271Z,11.30
2023-04-08T13:50:22.507Z,11.93
2023-04-08T13:52:50.802Z,12.80
2023-04-08T13:55:19.360Z,9.30
2023-04-08T13:57:47.353Z,11.03
2023-04-08T14:00:15.845Z,12.77
2023-04-08T14:02:45.669Z,13.03
2023-04-08T14:05:14.016Z,11.07
2023-04-08T14:07:42.042Z,12.15
2023-04-08T14:10:11.113Z,13.20
2023-04-08T14:12:39.344Z,12.60
2023-04-08T14:15:08.898Z,8.30
2023-04-08T14:17:37.157Z,12.33
2023-04-08T14:20:08.317Z,10.73
2023-04-08T14:22:36.448Z,13.10
2023-04-08T14:25:04.769Z,11.23
2023-04-08T14:27:33.401Z,9.80
2023-04-08T14:30:02.150Z,8.50
2023-04-08T14:32:30.530Z,11.80
2023-04-08T14:34:58.734Z,9.33
2023-04-08T14:37:28.097Z,9.87
2023-04-08T14:39:56.736Z,10.40
2023-04-08T14:42:25.149Z,13.20
2023-04-08T14:44:53.039Z,9.83
2023-04-08T14:47:21.131Z,12.20
2023-04-08T14:49:49.148Z,11.30
2023-04-08T14:52:17.067Z,10.23
2023-04-08T14:54:47.081Z,10.23
2023-04-08T14:57:16.750Z,11.00
2023-04-08T14:59:44.921Z,10.80
2023-04-08T15:02:12.874Z,12.33
2023-04-08T15:04:41.063Z,15.80
2023-04-08T15:07:09.179Z,10.80
2023-04-08T15:09:37.642Z,12.20
2023-04-08T15:12:07.330Z,11.23
2023-04-08T15:14:35.319Z,12.30
2023-04-08T15:17:03.402Z,9.50
2023-04-08T15:19:31.295Z,13.17
2023-04-08T15:21:59.345Z,13.17
2023-04-08T15:24:27.509Z,13.20
2023-04-08T15:26:56.284Z,11.53
2023-04-08T15:29:26.224Z,11.77
2023-04-08T15:31:54.147Z,11.60
2023-04-08T15:34:22.321Z,12.53
2023-04-08T15:36:50.884Z,15.00
2023-04-08T15:39:18.883Z,17.20
2023-04-08T15:41:46.999Z,15.80
2023-04-08T15:44:14.915Z,15.03
2023-04-08T15:46:44.445Z,20.73
2023-04-08T15:49:12.529Z,15.13
2023-04-08T15:51:44.585Z,13.40
2023-04-08T15:54:12.769Z,11.90
2023-04-08T15:56:40.716Z,17.27
2023-04-08T15:59:08.930Z,16.37
2023-04-08T16:01:37.072Z,15.13
2023-04-08T16:04:07.242Z,16.10
2023-04-08T16:06:35.511Z,16.30
2023-04-08T16:09:03.455Z,15.53
2023-04-08T16:11:31.833Z,18.90
2023-04-08T16:13:59.901Z,20.17
2023-04-08T16:16:28.702Z,15.63
2023-04-08T16:18:56.862Z,16.70
2023-04-08T16:21:26.097Z,15.73
2023-04-08T16:23:53.936Z,16.40
2023-04-08T16:26:22.527Z,15.90
2023-04-08T16:28:50.889Z,21.00
2023-04-08T16:31:20.102Z,17.13
2023-04-08T16:33:48.155Z,16.60
2023-04-08T16:36:16.224Z,17.97
2023-04-08T16:38:45.526Z,20.10
2023-04-08T16:41:13.561Z,19.27
2023-04-08T16:43:41.487Z,15.63
2023-04-08T16:46:13.390Z,18.13
2023-04-08T16:48:41.921Z,22.95
2023-04-08T16:51:09.846Z,20.90
2023-04-08T16:53:38.485Z,20.60
2023-04-08T16:56:14.320Z,18.03
2023-04-08T16:58:42.533Z,16.55
2023-04-08T17:01:11.153Z,15.07
2023-04-08T17:03:39.480Z,22.20
2023-04-08T17:06:08.291Z,15.10
2023-04-08T17:08:36.383Z,32.20
2023-04-08T17:11:10.427Z,18.13
2023-04-08T17:13:39.406Z,17.33
2023-04-08T17:16:08.031Z,16.80
2023-04-08T17:18:35.987Z,21.13
2023-04-08T17:21:04.182Z,16.50
2023-04-08T17:23:32.091Z,20.05
2023-04-08T17:26:00.202Z,15.33
2023-04-08T17:28:29.618Z,15.30
2023-04-08T17:30:57.484Z,15.83
2023-04-08T17:33:25.695Z,15.13
2023-04-08T17:35:53.929Z,14.15
2023-04-08T17:38:21.942Z,14.67
2023-04-08T17:40:49.957Z,16.90
2023-04-08T17:43:17.864Z,13.13
2023-04-08T17:45:50.547Z,17.13
2023-04-08T17:48:18.885Z,14.03
2023-04-08T17:50:46.844Z,12.03
2023-04-08T17:53:14.903Z,16.60
2023-04-08T17:55:42.825Z,13.77
2023-04-08T17:58:10.761Z,15.57
2023-04-08T18:00:38.822Z,16.70
2023-04-08T18:03:09.310Z,14.50
2023-04-08T18:05:37.490Z,16.63
2023-04-08T18:08:05.501Z,16.60
2023-04-08T18:10:33.921Z,16.90
2023-04-08T18:13:10.794Z,20.97
2023-04-08T18:15:39.736Z,14.90
2023-04-08T18:18:09.236Z,17.27
2023-04-08T18:20:37.811Z,18.40
2023-04-08T18:23:05.990Z,18.40
2023-04-08T18:25:34.626Z,22.90
2023-04-08T18:28:02.645Z,20.23
2023-04-08T18:30:31.074Z,15.90
2023-04-08T18:32:59.187Z,15.50
2023-04-08T18:35:28.653Z,21.23
2023-04-08T18:37:57.266Z,16.20
2023-04-08T18:40:25.505Z,25.50
2023-04-08T18:42:53.942Z,19.70
2023-04-08T18:45:21.869Z,19.43
2023-04-08T18:47:49.835Z,19.90
2023-04-08T18:50:18.580Z,18.97
2023-04-08T18:52:47.927Z,17.90
2023-04-08T18:55:16.192Z,22.80
2023-04-08T18:57:44.854Z,18.85
2023-04-08T19:00:13.670Z,16.70
2023-04-08T19:02:41.846Z,18.87
2023-04-08T19:05:10.324Z,24.13
2023-04-08T19:07:38.495Z,19.50
2023-04-08T19:10:09.440Z,20.47
2023-04-08T19:12:37.684Z,24.40
2023-04-08T19:15:06.583Z,21.67
2023-04-08T19:17:34.521Z,19.80
2023-04-08T19:20:03.424Z,18.03
2023-04-08T19:22:32.187Z,20.77
2023-04-08T19:25:00.221Z,18.07
2023-04-08T19:27:29.498Z,16.52
2023-04-08T19:29:58.082Z,15.23
2023-04-08T19:32:26.768Z,16.00
2023-04-08T19:34:54.906Z,15.47
2023-04-08T19:37:22.854Z,19.60
2023-04-08T19:39:50.932Z,17.80
2023-04-08T19:42:19.636Z,15.97
2023-04-08T19:44:49.188Z,19.10
2023-04-08T19:47:17.656Z,20.53
2023-04-08T19:49:45.961Z,20.40
2023-04-08T19:52:13.869Z,20.10
2023-04-08T19:54:43.649Z,18.17
2023-04-08T19:57:12.223Z,20.73
2023-04-08T19:59:40.370Z,23.80
2023-04-08T20:02:09.817Z,18.40
2023-04-08T20:04:37.979Z,22.40
2023-04-08T20:07:06.004Z,20.37
2023-04-08T20:09:33.924Z,16.30
2023-04-08T20:12:04.810Z,18.03
2023-04-08T20:14:33.908Z,29.15
2023-04-08T20:17:02.420Z,17.17
2023-04-08T20:19:31.963Z,18.13
2023-04-08T20:22:00.021Z,28.30
2023-04-08T20:24:27.938Z,30.27
2023-04-08T20:26:56.230Z,20.73
2023-04-08T20:29:24.316Z,22.90
2023-04-08T20:31:52.303Z,18.10
2023-04-08T20:34:20.323Z,21.50
2023-04-08T20:36:50.120Z,23.60
2023-04-08T20:39:18.086Z,23.70
2023-04-08T20:41:46.550Z,17.60
2023-04-08T20:44:14.622Z,16.97
2023-04-08T20:46:42.797Z,18.48
2023-04-08T20:49:10.893Z,22.00
2023-04-08T20:51:39.367Z,21.90
2023-04-08T20:54:08.868Z,24.00
2023-04-08T20:56:36.848Z,22.03
2023-04-08T20:59:04.955Z,22.90
2023-04-08T21:01:33.062Z,21.67
2023-04-08T21:04:01.144Z,22.50
2023-04-08T21:06:29.030Z,17.57
2023-04-08T21:08:57.050Z,20.23
2023-04-08T21:11:27.830Z,19.77
2023-04-08T21:13:56.454Z,21.10
2023-04-08T21:16:24.400Z,20.37
2023-04-08T21:18:53.046Z,19.10
2023-04-08T21:21:21.491Z,20.83
2023-04-08T21:23:49.488Z,21.02
2023-04-08T21:26:17.585Z,18.67
2023-04-08T21:28:46.961Z,15.30
2023-04-08T21:31:14.992Z,20.23
2023-04-08T21:33:43.782Z,15.83
2023-04-08T21:36:11.714Z,18.02
2023-04-08T21:38:39.912Z,20.27
2023-04-08T21:41:07.791Z,17.93
2023-04-08T21:43:35.875Z,19.88
2023-04-08T21:46:06.031Z,20.03
2023-04-08T21:48:34.060Z,18.25
2023-04-08T21:51:02.049Z,17.53
2023-04-08T21:53:30.118Z,16.43
2023-04-08T21:55:58.175Z,14.23
2023-04-08T21:58:28.266Z,8.93
2023-04-08T22:00:56.286Z,11.73
2023-04-08T22:03:26.515Z,13.23
2023-04-08T22:05:55.002Z,11.20
2023-04-08T22:08:23.001Z,11.40
2023-04-08T22:10:51.859Z,10.87
2023-04-08T22:13:20.736Z,12.63
2023-04-08T22:15:48.720Z,9.60
2023-04-08T22:18:16.788Z,7.97
2023-04-08T22:20:46.259Z,9.67
2023-04-08T22:23:14.186Z,10.90
2023-04-08T22:25:42.352Z,9.67
2023-04-08T22:28:10.240Z,8.03
2023-04-08T22:30:38.509Z,8.57
2023-04-08T22:33:06.471Z,12.13
